Time;durP1;ratioP1;P1;durP2;ratioP2;P2;SDS_P1;SDS_P2;PMS_P1;PMS_P2;Temp;Humidity;BMP_temperature;BMP_pressure;BME280_temperature;BME280_humidity;BME280_pressure;Samples;Min_cycle;Max_cycle;Signal;HPM_P1;HPM_P2
2023/12/10 00:00:19;;;;;;;21.00;4.80;;;;;5.40;92874.00;;;;7399949;19;20161;-75
2023/12/10 00:02:54;;;;;;;31.93;4.97;;;;;5.50;92865.00;;;;7399579;19;20127;-77
2023/12/10 00:05:22;;;;;;;23.93;5.73;;;;;5.40;92895.00;;;;7400489;19;20143;-77
2023/12/10 00:07:58;;;;;;;25.67;4.97;;;;;5.40;92904.00;;;;7399032;19;20601;-75
2023/12/10 00:10:32;;;;;;;26.17;4.43;;;;;5.40;92895.00;;;;7399337;19;20145;-75
2023/12/10 00:13:13;;;;;;;31.77;4.63;;;;;5.30;92938.00;;;;7397307;19;20175;-75
2023/12/10 00:15:40;;;;;;;26.63;5.17;;;;;5.30;92910.00;;;;7394273;19;20152;-75
2023/12/10 00:18:14;;;;;;;30.83;5.70;;;;;5.40;92912.00;;;;7400352;19;20611;-75
2023/12/10 00:20:43;;;;;;;25.10;4.37;;;;;5.30;92913.00;;;;7399630;19;20136;-75
2023/12/10 00:23:17;;;;;;;40.87;6.53;;;;;5.40;92916.00;;;;7398018;19;20148;-75
2023/12/10 00:25:45;;;;;;;29.13;4.67;;;;;5.40;92917.00;;;;7396169;19;20132;-75
2023/12/10 00:28:19;;;;;;;29.00;5.17;;;;;5.40;92933.00;;;;7394983;19;20177;-75
2023/12/10 00:30:48;;;;;;;22.67;4.67;;;;;5.30;92930.00;;;;7395996;19;20622;-76
2023/12/10 00:33:31;;;;;;;32.73;6.53;;;;;5.30;92929.00;;;;7400503;19;20561;-75
2023/12/10 00:35:59;;;;;;;28.40;5.93;;;;;5.20;92932.00;;;;7397430;19;20146;-75
2023/12/10 00:38:38;;;;;;;35.10;5.13;;;;;5.30;92959.00;;;;7398844;19;20129;-74
2023/12/10 00:41:05;;;;;;;24.23;5.40;;;;;5.40;92958.00;;;;7397063;19;20129;-74
2023/12/10 00:43:40;;;;;;;39.90;6.07;;;;;5.40;92938.00;;;;7397408;19;20165;-77
2023/12/10 00:46:08;;;;;;;30.67;4.93;;;;;5.20;92938.00;;;;7396524;19;20145;-74
2023/12/10 00:48:43;;;;;;;37.03;5.73;;;;;5.30;92940.00;;;;7397959;19;20460;-75
2023/12/10 00:51:23;;;;;;;30.23;5.30;;;;;5.20;92950.00;;;;7398972;19;20145;-74
2023/12/10 00:54:00;;;;;;;31.10;4.83;;;;;5.10;92960.00;;;;7399130;19;20137;-76
2023/12/10 00:56:35;;;;;;;39.57;5.93;;;;;5.20;92944.00;;;;7399435;19;20139;-75
2023/12/10 00:59:09;;;;;;;32.43;6.53;;;;;5.00;92959.00;;;;7397606;19;20188;-76
2023/12/10 01:01:45;;;;;;;35.87;5.10;;;;;5.10;92979.00;;;;7397296;19;20605;-73
2023/12/10 01:04:14;;;;;;;41.37;5.57;;;;;5.20;92972.00;;;;7397758;19;20137;-77
2023/12/10 01:06:49;;;;;;;36.27;6.13;;;;;5.10;92991.00;;;;7396518;19;20951;-77
2023/12/10 01:09:23;;;;;;;39.53;5.37;;;;;5.20;92989.00;;;;7395535;19;20196;-75
2023/12/10 01:11:59;;;;;;;32.80;5.50;;;;;5.20;92988.00;;;;7398958;19;20135;-75
2023/12/10 01:14:29;;;;;;;33.53;5.27;;;;;5.30;92993.00;;;;7396851;19;20148;-74
2023/12/10 01:17:03;;;;;;;28.37;5.30;;;;;5.20;92995.00;;;;7397521;19;20581;-75
2023/12/10 01:19:31;;;;;;;27.63;4.93;;;;;5.10;92999.00;;;;7398786;19;20150;-75
2023/12/10 01:22:05;;;;;;;40.03;5.40;;;;;5.10;93000.00;;;;7397725;19;20140;-76
2023/12/10 01:24:39;;;;;;;41.80;5.47;;;;;5.10;93016.00;;;;7397034;19;20507;-78
2023/12/10 01:27:13;;;;;;;27.20;5.20;;;;;5.20;93015.00;;;;7397902;19;20128;-76
2023/12/10 01:29:47;;;;;;;27.80;5.47;;;;;5.20;93028.00;;;;7394921;19;20145;-75
2023/12/10 01:32:23;;;;;;;29.47;5.60;;;;;5.20;93054.00;;;;7395549;19;20171;-76
2023/12/10 01:34:58;;;;;;;24.60;4.40;;;;;5.30;93042.00;;;;7397990;19;20137;-76
2023/12/10 01:37:33;;;;;;;26.07;4.73;;;;;5.40;93036.00;;;;7398183;19;20519;-76
2023/12/10 01:40:08;;;;;;;29.83;4.53;;;;;5.30;93020.00;;;;7397783;19;20141;-77
2023/12/10 01:42:53;;;;;;;27.27;4.57;;;;;5.20;93028.00;;;;7396566;19;20148;-78
2023/12/10 01:45:21;;;;;;;27.50;4.33;;;;;5.20;93033.00;;;;7396100;19;20148;-76
2023/12/10 01:47:55;;;;;;;24.73;5.10;;;;;5.20;93046.00;;;;7395997;19;20140;-76
2023/12/10 01:50:25;;;;;;;28.10;5.03;;;;;5.20;93061.00;;;;7394519;19;20127;-77
2023/12/10 01:52:59;;;;;;;17.63;3.63;;;;;5.30;93047.00;;;;7396740;19;20148;-77
2023/12/10 01:55:34;;;;;;;17.27;3.57;;;;;5.20;93077.00;;;;7395761;19;20172;-81
2023/12/10 01:58:09;;;;;;;27.80;4.47;;;;;5.20;93078.00;;;;7396036;19;20133;-79
2023/12/10 02:00:38;;;;;;;22.00;3.90;;;;;5.10;93102.00;;;;7395867;19;20136;-76
2023/12/10 02:03:12;;;;;;;20.90;4.07;;;;;5.20;93114.00;;;;7397674;19;20136;-74
2023/12/10 02:05:39;;;;;;;19.10;3.47;;;;;5.10;93096.00;;;;7397369;19;20157;-78
2023/12/10 02:08:07;;;;;;;13.80;3.07;;;;;4.90;93117.00;;;;7396924;19;20141;-75
2023/12/10 02:10:41;;;;;;;16.93;2.67;;;;;4.60;93139.00;;;;7396243;19;20129;-76
2023/12/10 02:13:09;;;;;;;11.57;2.70;;;;;4.60;93144.00;;;;7394438;19;20469;-77
2023/12/10 02:15:43;;;;;;;14.93;2.33;;;;;4.40;93171.00;;;;7399230;19;20529;-79
2023/12/10 02:18:20;;;;;;;8.67;2.43;;;;;4.50;93164.00;;;;7398505;19;20137;-76
2023/12/10 02:20:49;;;;;;;13.27;2.43;;;;;4.50;93165.00;;;;7397348;19;20132;-80
2023/12/10 02:23:46;;;;;;;9.77;2.00;;;;;4.20;93163.00;;;;7402150;19;20161;-81
2023/12/10 02:26:15;;;;;;;10.23;1.90;;;;;4.10;93175.00;;;;7401061;19;20517;-78
2023/12/10 02:28:52;;;;;;;4.13;1.10;;;;;4.10;93160.00;;;;7396583;19;20146;-79
2023/12/10 02:31:24;;;;;;;8.00;1.60;;;;;4.00;93157.00;;;;7394462;19;20137;-79
2023/12/10 02:34:07;;;;;;;9.60;1.87;;;;;4.00;93160.00;;;;7392162;19;20145;-81
2023/12/10 02:36:34;;;;;;;7.37;1.40;;;;;4.00;93170.00;;;;7398051;19;20664;-80
2023/12/10 02:39:10;;;;;;;12.23;2.67;;;;;4.00;93178.00;;;;7398832;19;20121;-78
2023/12/10 02:41:38;;;;;;;13.60;2.60;;;;;4.00;93198.00;;;;7398127;19;20149;-79
2023/12/10 02:44:12;;;;;;;17.80;3.00;;;;;4.00;93196.00;;;;7397544;19;20137;-79
2023/12/10 02:46:44;;;;;;;10.53;2.13;;;;;4.00;93202.00;;;;7397047;19;20125;-79
2023/12/10 02:49:18;;;;;;;13.90;3.00;;;;;4.00;93206.00;;;;7402030;19;20137;-77
2023/12/10 02:51:52;;;;;;;26.83;3.40;;;;;4.10;93203.00;;;;7402139;19;20616;-76
2023/12/10 02:54:26;;;;;;;19.87;3.83;;;;;4.10;93205.00;;;;7403566;19;20138;-78
2023/12/10 02:57:00;;;;;;;18.53;3.03;;;;;4.20;93208.00;;;;7402372;19;20145;-78
2023/12/10 02:59:34;;;;;;;21.47;4.13;;;;;4.20;93234.00;;;;7402179;19;20497;-78
2023/12/10 03:02:02;;;;;;;27.07;4.83;;;;;4.20;93224.00;;;;7404539;19;20193;-75
2023/12/10 03:04:45;;;;;;;24.23;3.40;;;;;4.30;93237.00;;;;7404214;19;20187;-75
2023/12/10 03:07:13;;;;;;;25.40;3.63;;;;;4.40;93248.00;;;;7404864;19;20133;-78
2023/12/10 03:09:50;;;;;;;19.63;4.13;;;;;4.40;93251.00;;;;7401880;19;20155;-76
2023/12/10 03:12:25;;;;;;;18.23;3.23;;;;;4.40;93255.00;;;;7403978;19;20148;-76
2023/12/10 03:14:59;;;;;;;24.10;3.80;;;;;4.40;93235.00;;;;7402364;19;20148;-76
2023/12/10 03:17:27;;;;;;;27.50;3.57;;;;;4.40;93259.00;;;;7405011;19;20188;-76
2023/12/10 03:20:03;;;;;;;16.47;3.73;;;;;4.50;93262.00;;;;7402083;19;20133;-76
2023/12/10 03:22:38;;;;;;;28.33;4.00;;;;;4.40;93250.00;;;;7403703;19;20134;-76
2023/12/10 03:25:12;;;;;;;25.37;4.77;;;;;4.40;93253.00;;;;7403600;19;20596;-77
2023/12/10 03:27:49;;;;;;;25.40;3.60;;;;;4.30;93268.00;;;;7400924;19;20161;-79
2023/12/10 03:30:17;;;;;;;21.63;3.77;;;;;4.30;93262.00;;;;7399690;19;20605;-77
2023/12/10 03:33:04;;;;;;;13.40;3.10;;;;;4.40;93260.00;;;;7401074;19;20144;-76
2023/12/10 03:35:38;;;;;;;16.23;3.73;;;;;4.40;93261.00;;;;7403017;19;20196;-77
2023/12/10 03:38:12;;;;;;;20.03;3.37;;;;;4.40;93280.00;;;;7401020;19;20141;-77
2023/12/10 03:40:40;;;;;;;19.77;3.90;;;;;4.40;93256.00;;;;7403170;19;20132;-77
2023/12/10 03:43:15;;;;;;;17.07;3.30;;;;;4.40;93277.00;;;;7398988;19;20203;-76
2023/12/10 03:45:42;;;;;;;22.87;3.50;;;;;4.40;93282.00;;;;7400769;19;20121;-76
2023/12/10 03:48:17;;;;;;;26.27;3.40;;;;;4.50;93286.00;;;;7401033;19;20496;-78
2023/12/10 03:50:45;;;;;;;20.33;3.67;;;;;4.50;93220.00;;;;7399221;19;20183;-75
2023/12/10 03:53:14;;;;;;;20.93;3.90;;;;;4.50;93284.00;;;;7401937;19;20142;-75
2023/12/10 03:55:48;;;;;;;24.10;3.60;;;;;4.50;93290.00;;;;7401454;19;20610;-76
2023/12/10 03:58:22;;;;;;;17.27;3.50;;;;;4.50;93297.00;;;;7398245;19;20201;-74
2023/12/10 04:00:56;;;;;;;22.93;3.73;;;;;4.50;93294.00;;;;7400169;19;20144;-74
2023/12/10 04:03:30;;;;;;;25.13;4.00;;;;;4.40;93303.00;;;;7402177;19;20121;-74
2023/12/10 04:05:57;;;;;;;19.93;3.00;;;;;4.40;93306.00;;;;7401796;19;20135;-76
2023/12/10 04:08:32;;;;;;;24.50;3.63;;;;;4.50;93300.00;;;;7400329;19;20141;-75
2023/12/10 04:11:06;;;;;;;22.77;3.33;;;;;4.40;93302.00;;;;7400296;19;20125;-76
2023/12/10 04:13:42;;;;;;;23.03;3.90;;;;;4.50;93321.00;;;;7399407;19;20152;-76
2023/12/10 04:16:31;;;;;;;20.80;3.70;;;;;4.40;93303.00;;;;7399031;19;20148;-75
2023/12/10 04:19:09;;;;;;;20.60;3.67;;;;;4.50;93304.00;;;;7401149;19;20509;-76
2023/12/10 04:21:39;;;;;;;16.97;3.40;;;;;4.40;93313.00;;;;7400700;19;20133;-74
2023/12/10 04:24:07;;;;;;;19.10;2.87;;;;;4.30;93310.00;;;;7400548;19;20601;-77
2023/12/10 04:26:43;;;;;;;20.37;3.97;;;;;4.40;93312.00;;;;7402032;19;20487;-76
2023/12/10 04:29:15;;;;;;;11.93;3.07;;;;;4.50;93314.00;;;;7400937;19;20208;-76
2023/12/10 04:31:47;;;;;;;11.73;2.87;;;;;4.60;93313.00;;;;7400428;19;20516;-76
2023/12/10 04:34:28;;;;;;;19.43;3.03;;;;;4.50;93315.00;;;;7395784;19;20502;-77
2023/12/10 04:37:03;;;;;;;21.47;3.80;;;;;4.40;93309.00;;;;7400901;19;20133;-76
2023/12/10 04:39:36;;;;;;;17.83;3.93;;;;;4.30;93304.00;;;;7400405;19;20819;-75
2023/12/10 04:42:10;;;;;;;15.23;2.97;;;;;4.20;93315.00;;;;7401343;19;20532;-75
2023/12/10 04:44:46;;;;;;;12.97;3.10;;;;;4.20;93304.00;;;;7398533;19;20455;-77
2023/12/10 04:47:18;;;;;;;14.30;3.20;;;;;4.20;93326.00;;;;7399020;19;20140;-77
2023/12/10 04:49:54;;;;;;;16.30;3.53;;;;;4.10;93326.00;;;;7399430;19;20136;-77
2023/12/10 04:52:27;;;;;;;21.80;3.33;;;;;4.30;93315.00;;;;7399431;19;20121;-76
2023/12/10 04:55:03;;;;;;;18.37;3.63;;;;;4.30;93332.00;;;;7399651;19;20608;-77
2023/12/10 04:57:37;;;;;;;20.27;3.30;;;;;4.30;93319.00;;;;7399518;19;20133;-79
2023/12/10 05:00:08;;;;;;;20.00;3.10;;;;;4.30;93317.00;;;;7399667;19;20471;-75
2023/12/10 05:02:42;;;;;;;15.07;3.20;;;;;4.40;93316.00;;;;7399454;19;20137;-76
2023/12/10 05:05:10;;;;;;;20.07;3.10;;;;;4.40;93315.00;;;;7399271;19;20206;-79
2023/12/10 05:07:45;;;;;;;18.17;3.37;;;;;4.50;93335.00;;;;7398566;19;20135;-76
2023/12/10 05:10:13;;;;;;;16.53;3.47;;;;;4.60;93343.00;;;;7398934;19;20139;-77
2023/12/10 05:12:58;;;;;;;17.93;3.23;;;;;4.40;93322.00;;;;7397041;19;20140;-78
2023/12/10 05:15:28;;;;;;;21.47;3.00;;;;;4.30;93362.00;;;;7398330;19;20621;-76
2023/12/10 05:18:03;;;;;;;23.43;3.63;;;;;4.30;93348.00;;;;7398020;19;20136;-75
2023/12/10 05:20:31;;;;;;;12.53;2.53;;;;;4.40;93354.00;;;;7399862;19;20193;-75
2023/12/10 05:23:05;;;;;;;17.40;3.03;;;;;4.40;93344.00;;;;7398811;19;20133;-77
2023/12/10 05:25:41;;;;;;;11.73;3.20;;;;;4.50;93359.00;;;;7397608;19;20177;-76
2023/12/10 05:28:10;;;;;;;17.27;3.93;;;;;4.40;93370.00;;;;7398593;19;20141;-78
2023/12/10 05:30:44;;;;;;;10.13;2.47;;;;;4.50;93339.00;;;;7396530;19;20166;-75
2023/12/10 05:33:18;;;;;;;15.77;2.77;;;;;4.40;93368.00;;;;7391367;19;20157;-76
2023/12/10 05:35:53;;;;;;;12.93;3.20;;;;;4.40;93367.00;;;;7396836;19;20154;-75
2023/12/10 05:38:22;;;;;;;14.67;3.03;;;;;4.40;93368.00;;;;7397345;19;20149;-73
2023/12/10 05:40:56;;;;;;;15.90;2.77;;;;;4.30;93357.00;;;;7397704;19;20162;-74
2023/12/10 05:43:26;;;;;;;10.77;2.50;;;;;4.30;93362.00;;;;7395528;19;20141;-75
2023/12/10 05:45:59;;;;;;;14.10;2.60;;;;;4.40;93344.00;;;;7397363;19;20132;-75
2023/12/10 05:48:30;;;;;;;15.27;2.70;;;;;4.40;93346.00;;;;7397279;19;20445;-74
2023/12/10 05:51:04;;;;;;;13.43;2.93;;;;;4.30;93353.00;;;;7398099;19;20140;-75
2023/12/10 05:53:33;;;;;;;15.47;2.83;;;;;4.40;93357.00;;;;7397813;19;20137;-75
2023/12/10 05:56:13;;;;;;;19.33;2.80;;;;;4.30;93357.00;;;;7396755;19;20605;-74
2023/12/10 05:58:52;;;;;;;10.17;2.67;;;;;4.30;93347.00;;;;7395575;19;20129;-75
2023/12/10 06:01:19;;;;;;;11.50;3.27;;;;;4.30;93341.00;;;;7397505;19;20132;-80
2023/12/10 06:03:47;;;;;;;19.00;3.17;;;;;4.40;93357.00;;;;7395587;19;20151;-76
2023/12/10 06:06:23;;;;;;;11.53;3.20;;;;;4.30;93349.00;;;;7398559;19;20146;-75
2023/12/10 06:09:00;;;;;;;11.27;2.73;;;;;4.30;93378.00;;;;7397309;19;20137;-75
2023/12/10 06:11:28;;;;;;;13.60;2.67;;;;;4.30;93375.00;;;;7398273;19;20597;-74
2023/12/10 06:13:55;;;;;;;11.93;2.67;;;;;4.30;93379.00;;;;7395835;19;20156;-77
2023/12/10 06:16:35;;;;;;;11.07;2.70;;;;;4.30;93375.00;;;;7395920;19;20140;-75
2023/12/10 06:19:09;;;;;;;12.37;3.07;;;;;4.20;93377.00;;;;7396334;19;20136;-78
2023/12/10 06:21:46;;;;;;;17.53;3.67;;;;;4.30;93385.00;;;;7395864;19;20609;-76
2023/12/10 06:24:20;;;;;;;12.77;2.70;;;;;4.30;93386.00;;;;7403138;19;20144;-76
2023/12/10 06:26:55;;;;;;;12.23;2.30;;;;;4.30;93409.00;;;;7403187;19;20155;-75
2023/12/10 06:29:23;;;;;;;13.53;3.10;;;;;4.30;93408.00;;;;7402846;19;20165;-75
2023/12/10 06:32:11;;;;;;;13.40;2.53;;;;;4.20;93409.00;;;;7400559;19;20173;-74
2023/12/10 06:34:45;;;;;;;16.47;2.70;;;;;4.30;93413.00;;;;7400356;19;20228;-76
2023/12/10 06:37:24;;;;;;;14.73;3.60;;;;;4.40;93434.00;;;;7404122;19;20597;-74
2023/12/10 06:39:57;;;;;;;11.00;2.53;;;;;4.40;93426.00;;;;7403146;19;20144;-74
2023/12/10 06:42:36;;;;;;;16.37;2.90;;;;;4.30;93448.00;;;;7402933;19;20144;-75
2023/12/10 06:45:05;;;;;;;19.73;3.17;;;;;4.40;93426.00;;;;7402678;19;20155;-74
2023/12/10 06:47:39;;;;;;;13.47;2.53;;;;;4.50;93440.00;;;;7402388;19;20136;-76
2023/12/10 06:50:14;;;;;;;11.57;2.43;;;;;4.50;93451.00;;;;7402072;19;20137;-75
2023/12/10 06:52:47;;;;;;;16.30;2.80;;;;;4.60;93452.00;;;;7401563;19;20611;-77
2023/12/10 06:55:29;;;;;;;23.57;2.80;;;;;4.50;93456.00;;;;7402991;19;20498;-75
2023/12/10 06:57:57;;;;;;;12.70;2.60;;;;;4.70;93462.00;;;;7403133;19;20124;-77
2023/12/10 07:00:32;;;;;;;11.57;2.60;;;;;4.70;93464.00;;;;7403328;19;20236;-77
2023/12/10 07:02:59;;;;;;;18.33;3.53;;;;;4.60;93482.00;;;;7403593;19;20609;-75
2023/12/10 07:05:34;;;;;;;14.90;2.47;;;;;4.60;93479.00;;;;7402330;19;20147;-75
2023/12/10 07:08:01;;;;;;;16.13;3.13;;;;;4.60;93496.00;;;;7401112;19;20141;-73
2023/12/10 07:10:39;;;;;;;17.40;2.63;;;;;4.60;93502.00;;;;7402897;19;20475;-75
2023/12/10 07:13:07;;;;;;;12.37;2.73;;;;;4.60;93508.00;;;;7399828;19;20155;-74
2023/12/10 07:15:37;;;;;;;19.47;3.27;;;;;4.70;93517.00;;;;7399436;19;20140;-76
2023/12/10 07:18:10;;;;;;;17.97;3.20;;;;;4.70;93513.00;;;;7403591;19;20144;-74
2023/12/10 07:20:38;;;;;;;10.87;2.37;;;;;4.70;93516.00;;;;7400890;19;20158;-76
2023/12/10 07:23:14;;;;;;;15.27;3.10;;;;;4.80;93526.00;;;;7402433;19;20596;-76
2023/12/10 07:25:42;;;;;;;19.80;2.60;;;;;4.80;93510.00;;;;7401317;19;20143;-75
2023/12/10 07:28:16;;;;;;;12.20;2.57;;;;;4.90;93543.00;;;;7385528;19;20144;-76
2023/12/10 07:30:44;;;;;;;17.23;3.87;;;;;5.00;93531.00;;;;7390874;19;20133;-78
2023/12/10 07:33:25;;;;;;;17.00;2.50;;;;;5.10;93543.00;;;;7389750;19;20662;-79
2023/12/10 07:36:00;;;;;;;12.93;3.00;;;;;5.10;93547.00;;;;7393203;19;20129;-74
2023/12/10 07:38:40;;;;;;;15.83;2.67;;;;;5.00;93553.00;;;;7393133;19;20143;-74
2023/12/10 07:41:14;;;;;;;10.53;2.33;;;;;5.10;93566.00;;;;7392316;19;20144;-75
2023/12/10 07:43:42;;;;;;;12.13;2.63;;;;;5.10;93576.00;;;;7390503;19;20222;-75
2023/12/10 07:46:22;;;;;;;13.60;2.90;;;;;5.20;93575.00;;;;7391786;19;20133;-74
2023/12/10 07:48:57;;;;;;;16.27;3.67;;;;;5.20;93560.00;;;;7391457;19;20484;-75
2023/12/10 07:51:32;;;;;;;10.63;2.87;;;;;5.00;93568.00;;;;7391874;19;20503;-75
2023/12/10 07:54:07;;;;;;;16.40;2.57;;;;;5.00;93577.00;;;;7391408;19;20125;-78
2023/12/10 07:56:42;;;;;;;13.03;2.53;;;;;4.90;93581.00;;;;7386919;19;20156;-77
2023/12/10 07:59:17;;;;;;;13.57;2.30;;;;;4.90;93590.00;;;;7389244;19;20152;-78
2023/12/10 08:01:45;;;;;;;14.60;2.70;;;;;4.90;93593.00;;;;7391039;19;20185;-76
2023/12/10 08:04:19;;;;;;;18.73;2.80;;;;;5.00;93599.00;;;;7390856;19;20474;-77
2023/12/10 08:06:47;;;;;;;18.77;3.87;;;;;5.10;93604.00;;;;7388807;19;20596;-75
2023/12/10 08:09:21;;;;;;;12.33;2.30;;;;;5.10;93602.00;;;;7388830;19;20634;-77
2023/12/10 08:11:56;;;;;;;16.63;2.53;;;;;5.10;93605.00;;;;7382313;19;20165;-79
2023/12/10 08:14:30;;;;;;;14.47;3.07;;;;;5.10;93605.00;;;;7384959;19;20144;-77
2023/12/10 08:17:11;;;;;;;15.70;2.90;;;;;5.30;93616.00;;;;7389191;19;20129;-76
2023/12/10 08:19:39;;;;;;;14.30;2.43;;;;;5.30;93602.00;;;;7388018;19;20140;-77
2023/12/10 08:22:13;;;;;;;15.00;3.50;;;;;5.30;93618.00;;;;7387299;19;20131;-77
2023/12/10 08:24:47;;;;;;;16.70;2.93;;;;;5.50;93607.00;;;;7386546;19;20151;-75
2023/12/10 08:27:15;;;;;;;14.47;2.67;;;;;5.40;93616.00;;;;7385737;19;20148;-80
2023/12/10 08:29:49;;;;;;;10.63;2.50;;;;;5.50;93616.00;;;;7385770;19;20593;-77
2023/12/10 08:32:19;;;;;;;22.83;2.50;;;;;5.40;93613.00;;;;7387551;19;20605;-77
2023/12/10 08:35:06;;;;;;;16.23;2.67;;;;;5.50;93623.00;;;;7387362;19;20603;-77
2023/12/10 08:37:38;;;;;;;18.63;3.17;;;;;5.50;93613.00;;;;7379527;19;20561;-76
2023/12/10 08:40:14;;;;;;;13.47;2.30;;;;;5.40;93625.00;;;;7383590;19;20722;-78
2023/12/10 08:42:49;;;;;;;13.57;2.93;;;;;5.50;93606.00;;;;7383829;19;20177;-75
2023/12/10 08:45:23;;;;;;;17.00;2.97;;;;;5.40;93623.00;;;;7383426;19;20136;-77
2023/12/10 08:47:53;;;;;;;12.20;2.87;;;;;5.40;93596.00;;;;7385744;19;20478;-80
2023/12/10 08:50:27;;;;;;;12.20;2.73;;;;;5.40;93615.00;;;;7387568;19;20128;-77
2023/12/10 08:52:56;;;;;;;15.80;3.03;;;;;5.20;93630.00;;;;7389267;19;20124;-78
2023/12/10 08:55:23;;;;;;;12.53;2.77;;;;;5.20;93642.00;;;;7387567;19;20153;-78
2023/12/10 08:57:57;;;;;;;13.37;2.40;;;;;5.10;93629.00;;;;7386807;19;20149;-77
2023/12/10 09:00:25;;;;;;;16.57;2.80;;;;;5.00;93655.00;;;;7386236;19;20144;-77
2023/12/10 09:03:00;;;;;;;13.77;2.53;;;;;4.90;93656.00;;;;7385982;19;20819;-76
2023/12/10 09:05:27;;;;;;;17.77;2.47;;;;;4.70;93670.00;;;;7389262;19;20135;-76
2023/12/10 09:08:11;;;;;;;11.53;2.63;;;;;4.70;93672.00;;;;7387206;19;20456;-79
2023/12/10 09:10:39;;;;;;;12.57;2.80;;;;;4.60;93678.00;;;;7388307;19;20129;-77
2023/12/10 09:13:13;;;;;;;13.77;2.40;;;;;4.70;93685.00;;;;7386730;19;20188;-76
2023/12/10 09:15:49;;;;;;;10.80;2.77;;;;;4.70;93671.00;;;;7386556;19;20152;-75
2023/12/10 09:18:23;;;;;;;16.03;3.47;;;;;4.70;93687.00;;;;7386104;19;20156;-76
2023/12/10 09:21:07;;;;;;;16.03;3.47;;;;;4.70;93687.00;;;;7385869;19;20132;-75
2023/12/10 09:23:43;;;;;;;14.43;2.37;;;;;4.70;93677.00;;;;7385429;19;20220;-76
2023/12/10 09:26:19;;;;;;;22.77;3.10;;;;;4.80;93702.00;;;;7385096;19;20169;-78
2023/12/10 09:28:56;;;;;;;12.13;2.37;;;;;4.90;93696.00;;;;7385529;19;20148;-77
2023/12/10 09:31:23;;;;;;;10.87;2.67;;;;;5.00;93708.00;;;;7385310;19;20136;-78
2023/12/10 09:34:04;;;;;;;8.90;3.10;;;;;4.90;93716.00;;;;7386154;19;20181;-77
2023/12/10 09:36:40;;;;;;;10.10;1.80;;;;;4.90;93715.00;;;;7384840;19;20152;-77
2023/12/10 09:39:14;;;;;;;17.27;2.63;;;;;4.90;93701.00;;;;7386914;19;20132;-74
2023/12/10 09:41:49;;;;;;;12.00;2.60;;;;;5.00;93699.00;;;;7386605;19;20140;-75
2023/12/10 09:44:23;;;;;;;10.53;2.37;;;;;5.00;93701.00;;;;7383814;19;20141;-75
2023/12/10 09:47:07;;;;;;;13.33;4.40;;;;;5.20;93711.00;;;;7383027;19;20151;-77
2023/12/10 09:49:37;;;;;;;12.83;2.70;;;;;5.10;93700.00;;;;7384905;19;20596;-76
2023/12/10 09:52:12;;;;;;;13.60;3.17;;;;;5.20;93706.00;;;;7385951;19;20148;-75
2023/12/10 09:54:41;;;;;;;23.23;8.70;;;;;5.10;93707.00;;;;7385072;19;20151;-75
2023/12/10 09:57:15;;;;;;;24.87;9.17;;;;;5.30;93707.00;;;;7385197;19;20214;-75
2023/12/10 09:59:43;;;;;;;18.73;2.90;;;;;5.40;93724.00;;;;7387384;19;20204;-80
2023/12/10 10:02:17;;;;;;;10.37;2.03;;;;;5.40;93708.00;;;;7390376;19;20593;-76
2023/12/10 10:04:46;;;;;;;16.67;2.20;;;;;5.50;93714.00;;;;7392056;19;20600;-77
2023/12/10 10:07:20;;;;;;;15.83;2.40;;;;;5.40;93713.00;;;;7394069;19;20151;-76
2023/12/10 10:09:51;;;;;;;14.23;2.57;;;;;5.30;93702.00;;;;7388756;19;20212;-75
2023/12/10 10:12:21;;;;;;;10.13;2.23;;;;;5.30;93709.00;;;;7387587;19;20821;-74
2023/12/10 10:14:57;;;;;;;13.63;2.63;;;;;5.40;93688.00;;;;7394201;19;20140;-74
2023/12/10 10:17:35;;;;;;;11.93;2.47;;;;;5.40;93685.00;;;;7392860;19;20613;-76
2023/12/10 10:20:06;;;;;;;10.00;2.93;;;;;5.50;93686.00;;;;7391678;19;20166;-75
2023/12/10 10:22:41;;;;;;;16.10;2.80;;;;;5.60;93686.00;;;;7391044;19;20261;-77
2023/12/10 10:25:15;;;;;;;16.47;2.70;;;;;5.60;93682.00;;;;7390215;19;20211;-74
2023/12/10 10:27:43;;;;;;;15.33;2.80;;;;;5.70;93686.00;;;;7393414;19;20478;-76
2023/12/10 10:30:19;;;;;;;10.83;2.53;;;;;5.70;93677.00;;;;7391489;19;20203;-75
2023/12/10 10:33:03;;;;;;;10.27;2.17;;;;;5.70;93686.00;;;;7390967;19;20232;-74
2023/12/10 10:35:31;;;;;;;10.47;2.27;;;;;5.70;93696.00;;;;7390778;19;20712;-74
2023/12/10 10:38:07;;;;;;;10.37;2.80;;;;;5.90;93680.00;;;;7386851;19;20143;-77
2023/12/10 10:40:41;;;;;;;10.43;2.07;;;;;5.80;93678.00;;;;7386403;19;20144;-75
2023/12/10 10:43:25;;;;;;;18.23;2.53;;;;;5.70;93668.00;;;;7385775;19;20156;-76
2023/12/10 10:45:56;;;;;;;13.80;2.47;;;;;5.90;93663.00;;;;7384821;19;21141;-75
2023/12/10 10:48:31;;;;;;;13.27;2.30;;;;;5.80;93663.00;;;;7384576;19;20601;-77
2023/12/10 10:51:06;;;;;;;14.60;2.33;;;;;5.90;93654.00;;;;7384176;19;20764;-75
2023/12/10 10:53:42;;;;;;;16.03;3.17;;;;;6.10;93665.00;;;;7386515;19;20129;-74
2023/12/10 10:56:16;;;;;;;13.83;2.57;;;;;6.20;93645.00;;;;7384975;19;20620;-74
2023/12/10 10:58:50;;;;;;;15.83;2.57;;;;;6.30;93636.00;;;;7384404;19;20167;-76
2023/12/10 11:01:42;;;;;;;14.17;3.07;;;;;6.50;93630.00;;;;7384030;19;20158;-74
2023/12/10 11:04:20;;;;;;;10.20;2.37;;;;;6.40;93643.00;;;;7386195;19;20201;-78
2023/12/10 11:06:53;;;;;;;9.90;2.10;;;;;6.40;93638.00;;;;7383922;19;20617;-77
2023/12/10 11:09:31;;;;;;;12.73;2.37;;;;;6.50;93644.00;;;;7383114;19;20256;-77
2023/12/10 11:12:08;;;;;;;13.57;3.00;;;;;6.50;93652.00;;;;7383779;19;20177;-75
2023/12/10 11:14:42;;;;;;;12.97;3.57;;;;;6.90;93645.00;;;;7384268;19;20570;-77
2023/12/10 11:17:17;;;;;;;18.27;3.20;;;;;7.00;93648.00;;;;7385141;19;20152;-74
2023/12/10 11:19:57;;;;;;;13.97;2.80;;;;;7.00;93639.00;;;;7384369;19;20137;-76
2023/12/10 11:22:32;;;;;;;13.37;2.90;;;;;7.70;93649.00;;;;7385003;19;20140;-76
2023/12/10 11:25:07;;;;;;;13.00;2.50;;;;;7.70;93639.00;;;;7384521;19;20140;-74
2023/12/10 11:27:35;;;;;;;15.10;3.03;;;;;7.90;93651.00;;;;7382115;19;20129;-76
2023/12/10 11:30:12;;;;;;;13.27;2.80;;;;;7.60;93644.00;;;;7383127;19;20191;-75
2023/12/10 11:32:46;;;;;;;9.80;2.10;;;;;7.30;93646.00;;;;7382597;19;20548;-76
2023/12/10 11:35:29;;;;;;;8.23;2.90;;;;;6.90;93654.00;;;;7381175;19;20183;-78
2023/12/10 11:37:56;;;;;;;9.23;2.30;;;;;7.10;93641.00;;;;7381737;19;20151;-77
2023/12/10 11:40:30;;;;;;;9.90;2.10;;;;;7.30;93621.00;;;;7381156;19;20132;-76
2023/12/10 11:43:07;;;;;;;11.83;2.80;;;;;7.20;93537.00;;;;7380774;19;20148;-75
2023/12/10 11:45:36;;;;;;;12.07;2.40;;;;;7.00;93593.00;;;;7380928;19;20152;-76
2023/12/10 11:48:10;;;;;;;13.60;2.70;;;;;7.90;93595.00;;;;7383980;19;20136;-76
2023/12/10 11:50:38;;;;;;;14.17;2.60;;;;;7.90;93604.00;;;;7383064;19;20200;-77
2023/12/10 11:53:14;;;;;;;8.00;3.13;;;;;7.80;93611.00;;;;7382867;19;20606;-76
2023/12/10 11:55:43;;;;;;;9.52;2.65;;;;;7.60;93619.00;;;;7382221;19;20165;-76
2023/12/10 11:58:31;;;;;;;11.53;2.37;;;;;7.40;93632.00;;;;7385215;19;20132;-75
2023/12/10 12:01:01;;;;;;;15.93;2.60;;;;;7.20;93630.00;;;;7388760;19;20205;-75
2023/12/10 12:03:35;;;;;;;19.07;2.60;;;;;7.10;93636.00;;;;7387525;19;20157;-75
2023/12/10 12:06:04;;;;;;;13.33;2.57;;;;;7.00;93659.00;;;;7387717;19;20149;-77
2023/12/10 12:08:32;;;;;;;12.43;2.67;;;;;7.00;93640.00;;;;7388041;19;20994;-76
2023/12/10 12:11:06;;;;;;;15.73;2.97;;;;;7.10;93646.00;;;;7388250;19;20506;-77
2023/12/10 12:13:33;;;;;;;11.27;2.60;;;;;7.00;93643.00;;;;7388749;19;20167;-78
2023/12/10 12:16:08;;;;;;;11.80;2.40;;;;;6.90;93645.00;;;;7385196;19;20148;-75
2023/12/10 12:18:36;;;;;;;12.20;2.20;;;;;6.80;93645.00;;;;7386733;19;20629;-75
2023/12/10 12:21:10;;;;;;;20.17;2.97;;;;;6.70;93653.00;;;;7384364;19;20132;-77
2023/12/10 12:23:48;;;;;;;12.10;2.43;;;;;6.80;93656.00;;;;7388351;19;20148;-77
2023/12/10 12:26:25;;;;;;;11.30;2.30;;;;;6.50;93656.00;;;;7389278;19;20128;-78
2023/12/10 12:28:59;;;;;;;15.03;2.53;;;;;6.60;93650.00;;;;7389109;19;20149;-77
2023/12/10 12:31:33;;;;;;;12.60;2.73;;;;;6.50;93654.00;;;;7386971;19;20129;-75
2023/12/10 12:34:37;;;;;;;12.20;2.20;;;;;6.50;93651.00;;;;7385302;19;20441;-75
2023/12/10 12:37:11;;;;;;;10.40;2.70;;;;;6.40;93636.00;;;;7388128;19;20629;-75
2023/12/10 12:39:39;;;;;;;14.50;2.60;;;;;6.40;93630.00;;;;7387556;19;20620;-76
2023/12/10 12:42:13;;;;;;;20.47;3.17;;;;;6.30;93631.00;;;;7388202;19;20160;-77
2023/12/10 12:44:41;;;;;;;14.83;2.67;;;;;6.40;93621.00;;;;7389328;19;20188;-74
2023/12/10 12:47:16;;;;;;;15.87;2.73;;;;;6.40;93612.00;;;;7387409;19;20219;-75
2023/12/10 12:49:44;;;;;;;9.37;2.57;;;;;6.40;93619.00;;;;7389269;19;20577;-75